EW6715 Falls Church VA US current weather conditions

sailwx.info

Wind from 325 at 4 knots gusting 8

Air temperature 6.1° C
Dewpoint -3.0° C

Last reported at 2019-Dec-05 17:01 UTC.
Time now 2019-Dec-05 17:48 UTC

Location: N 38°53' W 077°11'.
View on Google Maps.

See reports from other nearby stations

  
Tides and Currents Weather Stations Pressure Air Temp Water Temp Dewpoint Dewpoint Depression Visibility Wind Speed Wind Dir Waves Ship Positions
date/time (UTC)wind fromknots sea level pressurealtimeterstation pressurevisibilityair tempwater tempwave heightnotes
2019-Dec-05 17:01 325 4 gusting 8 6.1
2019-Dec-05 16:56 360 5 gusting 7 6.1
2019-Dec-05 16:51 326 4 gusting 9 6.1
2019-Dec-05 16:46 342 5 gusting 9 6.1
2019-Dec-05 16:41 331 4 gusting 7 6.1
2019-Dec-05 16:36 340 284 gusting 284 6.1
2019-Dec-05 16:31 325 4 gusting 9 6.1
2019-Dec-05 16:26 321 3 gusting 8 6.1
2019-Dec-05 16:21 293 5 gusting 10 6.1
2019-Dec-05 16:16 331 5 gusting 13 6.1
2019-Dec-05 16:11 337 6 gusting 13 6.1
2019-Dec-05 16:06 323 6 gusting 12 6.1
2019-Dec-05 16:01 342 4 gusting 9 6.1
2019-Dec-05 15:56 307 3 gusting 19 6.1
2019-Dec-05 15:51 327 4 gusting 19 5.6
2019-Dec-05 15:46 317 6 gusting 14 5.6
2019-Dec-05 15:41 297 7 gusting 14 5.6
2019-Dec-05 15:36 292 4 gusting 10 5.6
2019-Dec-05 15:31 037 5 gusting 10 5.6
2019-Dec-05 15:26 319 4 gusting 7 5.6
2019-Dec-05 15:21 238 5 gusting 11 5.6
2019-Dec-05 15:16 360 6 gusting 14 5.6
2019-Dec-05 15:11 341 4 gusting 14 5.6
2019-Dec-05 15:06 332 3 gusting 12 5.6
2019-Dec-05 15:01 331 5 gusting 13 5.0
2019-Dec-05 14:56 333 5 gusting 13 5.0
2019-Dec-05 14:51 325 5 gusting 13 5.0
2019-Dec-05 14:46 346 5 gusting 10 5.0
2019-Dec-05 14:41 329 6 gusting 14 5.0
2019-Dec-05 14:36 344 4 gusting 15 5.0
2019-Dec-05 14:31 321 4 gusting 15 4.4
2019-Dec-05 14:26 333 4 gusting 13 4.4
2019-Dec-05 14:21 338 6 gusting 13 4.4
2019-Dec-05 14:16 320 4 gusting 9 4.4
2019-Dec-05 14:11 307 2 gusting 12 4.4
2019-Dec-05 14:06 323 3 gusting 12 4.4
2019-Dec-05 14:01 300 4 gusting 13 3.9
2019-Dec-05 13:56 332 6 gusting 13 3.9
2019-Dec-05 13:51 342 5 gusting 13 3.9
2019-Dec-05 13:46 311 6 gusting 10 3.9
2019-Dec-05 13:41 342 2 gusting 8 3.9
2019-Dec-05 13:36 031 3 gusting 7 3.9
2019-Dec-05 13:31 331 4 gusting 7 3.3
2019-Dec-05 13:26 328 3 gusting 10 3.3
2019-Dec-05 13:21 332 5 gusting 11 3.3
2019-Dec-05 13:16 335 6 gusting 11 3.3
2019-Dec-05 13:11 326 3 gusting 10 3.3
2019-Dec-05 13:06 346 6 gusting 11 3.3
2019-Dec-05 13:01 274 6 gusting 11 3.3
2019-Dec-05 12:56 335 5 gusting 12 3.3
2019-Dec-05 12:51 046 5 gusting 11 2.8
2019-Dec-05 12:46 329 5 gusting 8 2.8
2019-Dec-05 12:41 331 4 gusting 12 2.8
2019-Dec-05 12:36 333 6 gusting 11 2.8
2019-Dec-05 12:31 348 4 gusting 11 2.8
2019-Dec-05 12:26 346 5 gusting 11 2.8
2019-Dec-05 12:21 331 5 gusting 10 2.8
2019-Dec-05 12:16 323 5 gusting 7 2.8
2019-Dec-05 12:11 350 3 gusting 7 2.8
2019-Dec-05 12:06 326 2 gusting 7 2.8
2019-Dec-05 12:01 298 3 gusting 7 2.8
2019-Dec-05 11:56 342 4 gusting 8 2.8
2019-Dec-05 11:51 335 4 gusting 10 2.8
2019-Dec-05 11:46 327 5 gusting 11 2.8
2019-Dec-05 11:41 348 4 gusting 8 2.8
2019-Dec-05 11:36 341 4 gusting 7 2.8
2019-Dec-05 11:31 334 2 gusting 7 2.8
2019-Dec-05 11:26 306 3 gusting 8 2.8
2019-Dec-05 11:21 284 4 gusting 8 2.8
2019-Dec-05 11:16 306 2 gusting 6 2.8
2019-Dec-05 11:11 303 2 gusting 6 2.8
2019-Dec-05 11:06 299 1 gusting 5 2.8
2019-Dec-05 11:01 299 0 gusting 5 2.8
2019-Dec-05 10:56 300 2.8
2019-Dec-05 10:51 300 2.8
2019-Dec-05 10:46 300 0 gusting 7 2.8
2019-Dec-05 10:41 300 0 gusting 7 2.8
2019-Dec-05 10:36 306 1 gusting 5 2.8
2019-Dec-05 10:31 309 2 gusting 5 2.8
2019-Dec-05 10:26 308 0 gusting 6 3.3
2019-Dec-05 10:21 317 0 gusting 8 3.3
2019-Dec-05 10:16 281 2 gusting 8 3.3
2019-Dec-05 10:11 313 1 gusting 8 3.3
2019-Dec-05 10:06 315 2 gusting 6 3.3
2019-Dec-05 10:01 319 2 gusting 8 3.3
2019-Dec-05 09:56 315 3 gusting 9 3.3
2019-Dec-05 09:51 275 1 gusting 11 3.3
2019-Dec-05 09:46 317 4 gusting 11 3.3
2019-Dec-05 09:41 321 2 gusting 9 3.3
2019-Dec-05 09:36 321 4 gusting 9 3.3
2019-Dec-05 09:31 322 3 gusting 10 3.3
2019-Dec-05 09:26 336 2 gusting 8 3.3
2019-Dec-05 09:21 312 3 gusting 7 3.3
2019-Dec-05 09:16 309 1 gusting 8 3.3
2019-Dec-05 09:11 355 3 gusting 8 3.3
2019-Dec-05 09:06 322 3 gusting 7 3.3
2019-Dec-05 09:01 360 1 gusting 8 3.3
2019-Dec-05 08:56 300 3 gusting 8 3.3
2019-Dec-05 08:51 321 1 gusting 6 3.3
2019-Dec-05 08:46 311 3 gusting 7 3.3
2019-Dec-05 08:41 294 1 gusting 9 3.3
2019-Dec-05 08:36 323 3 gusting 9 3.3
2019-Dec-05 08:31 329 3 gusting 9 3.3
2019-Dec-05 08:26 301 1 gusting 8 3.3
2019-Dec-05 08:21 312 2 gusting 8 3.3
2019-Dec-05 08:16 267 1 gusting 8 3.3
2019-Dec-05 08:11 317 2 gusting 8 3.3
2019-Dec-05 08:06 325 2 gusting 9 3.3
2019-Dec-05 08:01 333 2 gusting 9 3.3
2019-Dec-05 07:56 297 1 gusting 6 3.3
2019-Dec-05 07:51 332 1 gusting 5 3.3
2019-Dec-05 07:46 273 3.3
2019-Dec-05 07:41 277 1 gusting 6 3.3
2019-Dec-05 07:36 281 1 gusting 11 3.3
2019-Dec-05 07:31 309 1 gusting 11 3.3
2019-Dec-05 07:26 292 3 gusting 6 3.3
2019-Dec-05 07:21 329 0 gusting 4 3.3
2019-Dec-05 07:16 329 1 gusting 5 3.9
2019-Dec-05 07:11 329 0 gusting 6 3.9
2019-Dec-05 07:06 334 0 gusting 6 3.9
2019-Dec-05 07:01 327 0 gusting 8 3.9
2019-Dec-05 06:56 316 3 gusting 10 3.9
2019-Dec-05 06:51 280 2 gusting 10 3.9
2019-Dec-05 06:46 288 3 gusting 7 3.9
2019-Dec-05 06:41 327 1 gusting 7 3.9
2019-Dec-05 06:36 317 2 gusting 5 3.9
2019-Dec-05 06:31 318 0 gusting 3 3.9
2019-Dec-05 06:26 318 0 gusting 3 3.9
2019-Dec-05 06:21 318 3.9
2019-Dec-05 06:16 318 3.9
2019-Dec-05 06:11 318 3.9
2019-Dec-05 06:06 318 3.9
2019-Dec-05 06:01 318 3.9
2019-Dec-05 05:56 318 3.9
2019-Dec-05 05:51 318 3.9
2019-Dec-05 05:46 318 4.4
2019-Dec-05 05:41 318 4.4
2019-Dec-05 05:36 318 4.4
2019-Dec-05 05:31 318 4.4
2019-Dec-05 05:26 318 0 gusting 2 4.4
2019-Dec-05 05:21 318 4.4
2019-Dec-05 05:16 318 5.0
2019-Dec-05 05:11 318 5.0
2019-Dec-05 05:06 318 5.0
2019-Dec-05 05:01 318 5.0
2019-Dec-05 04:56 318 5.0
2019-Dec-05 04:51 318 5.0
2019-Dec-05 04:46 318 5.0
2019-Dec-05 04:41 318 2 gusting 5 5.6
2019-Dec-05 04:36 325 2 gusting 6 5.6
2019-Dec-05 04:31 325 1 gusting 6 5.6
2019-Dec-05 04:26 344 2 gusting 8 5.6
2019-Dec-05 04:21 344 3 gusting 6 5.6
2019-Dec-05 04:16 344 0 gusting 7 5.6
2019-Dec-05 04:11 344 4 gusting 7 5.0
2019-Dec-05 04:06 290 2 gusting 6 5.0
2019-Dec-05 04:01 360 3 gusting 8 5.0
2019-Dec-05 03:56 335 4 gusting 8 5.0
2019-Dec-05 03:51 319 2 gusting 5 4.4
2019-Dec-05 03:46 319 0 gusting 2 4.4
2019-Dec-05 03:41 319 4.4
2019-Dec-05 03:36 319 4.4
2019-Dec-05 03:31 319 4.4
2019-Dec-05 03:26 319 4.4
2019-Dec-05 03:21 319 4.4
2019-Dec-05 03:16 319 4.4
2019-Dec-05 03:11 319 4.4
2019-Dec-05 03:06 319 4.4
2019-Dec-05 03:01 319 4.4
2019-Dec-05 02:56 319 4.4
2019-Dec-05 02:51 319 4.4
2019-Dec-05 02:46 319 5.0
2019-Dec-05 02:41 319 5.0
2019-Dec-05 02:36 319 5.0
2019-Dec-05 02:31 319 5.0
2019-Dec-05 02:26 319 5.0
2019-Dec-05 02:21 319 5.0
2019-Dec-05 02:16 319 0 gusting 1 5.0
2019-Dec-05 02:11 319 5.0
2019-Dec-05 02:06 319 5.0
2019-Dec-05 02:01 319 5.0
2019-Dec-05 01:56 319 5.0
2019-Dec-05 01:51 319 0 gusting 2 5.0
2019-Dec-05 01:46 319 1 gusting 3 5.0
2019-Dec-05 01:41 319 2 gusting 5 4.4
2019-Dec-05 01:36 319 1 gusting 5 4.4
2019-Dec-05 01:31 319 2 gusting 4 4.4
2019-Dec-05 01:26 319 0 gusting 4 5.0
2019-Dec-05 01:21 319 1 gusting 2 5.0
2019-Dec-05 01:16 319 5.6
2019-Dec-05 01:11 319 0 gusting 2 5.6
2019-Dec-05 01:06 319 5.6
2019-Dec-05 01:01 319 5.6
2019-Dec-05 00:56 319 5.6
2019-Dec-05 00:51 319 6.1
2019-Dec-05 00:46 319 6.1
2019-Dec-05 00:41 319 6.1
2019-Dec-05 00:36 319 6.1
2019-Dec-05 00:31 319 6.1
2019-Dec-05 00:26 319 6.1
2019-Dec-05 00:21 319 6.1
2019-Dec-05 00:16 319 6.1
2019-Dec-05 00:11 319 6.1
2019-Dec-05 00:06 319 6.1
2019-Dec-05 00:01 319 0 gusting 5 6.1
2019-Dec-04 23:56 319 1 gusting 5 6.7
2019-Dec-04 23:51 305 1 gusting 4 6.7
2019-Dec-04 23:46 304 1 gusting 6 6.7
2019-Dec-04 23:41 304 0 gusting 7 6.7
2019-Dec-04 23:36 345 3 gusting 7 6.7
2019-Dec-04 23:31 342 2 gusting 7 6.7
2019-Dec-04 23:26 338 2 gusting 7 6.7
2019-Dec-04 23:21 338 3 gusting 7 6.7
2019-Dec-04 23:16 329 2 gusting 8 6.7
2019-Dec-04 23:11 331 2 gusting 5 6.7
2019-Dec-04 23:06 331 2 gusting 6 7.2
2019-Dec-04 23:01 333 2 gusting 6 7.2
2019-Dec-04 22:56 332 3 gusting 6 7.2
2019-Dec-04 22:51 331 3 gusting 6 7.2
2019-Dec-04 22:46 331 3 gusting 6 7.2
2019-Dec-04 22:41 317 3 gusting 5 6.7
2019-Dec-04 22:36 342 0 gusting 8 7.2
2019-Dec-04 22:31 355 2 gusting 8 7.2
2019-Dec-04 22:26 334 1 gusting 5 6.7
2019-Dec-04 22:21 333 1 gusting 5 6.7
2019-Dec-04 22:16 333 1 gusting 3 7.2
2019-Dec-04 22:11 333 1 gusting 3 7.2
2019-Dec-04 22:06 333 1 gusting 3 7.2
2019-Dec-04 22:01 333 1 gusting 3 7.2
2019-Dec-04 21:56 333 7.2
2019-Dec-04 21:51 333 7.2
2019-Dec-04 21:46 333 7.8
2019-Dec-04 21:41 333 7.8
2019-Dec-04 21:36 333 0 gusting 4 7.8
2019-Dec-04 21:31 217 0 gusting 2 7.8
2019-Dec-04 21:26 214 7.8
2019-Dec-04 21:21 214 7.8
2019-Dec-04 21:16 215 7.8
2019-Dec-04 21:11 215 7.8
2019-Dec-04 21:06 215 1 gusting 4 7.8
2019-Dec-04 21:01 227 1 gusting 4 7.8
2019-Dec-04 20:56 266 2 gusting 4 8.3
2019-Dec-04 20:51 275 0 gusting 3 8.3
2019-Dec-04 20:46 284 8.3
2019-Dec-04 20:41 284 8.3
2019-Dec-04 20:36 219 1 gusting 5 8.3
2019-Dec-04 20:31 207 8.3
2019-Dec-04 20:26 207 0 gusting 6 8.9
2019-Dec-04 20:21 211 1 gusting 4 8.9
2019-Dec-04 20:16 234 0 gusting 4 8.9
2019-Dec-04 20:11 250 0 gusting 4 8.9
2019-Dec-04 20:06 295 8.9
2019-Dec-04 20:01 295 8.9
2019-Dec-04 19:56 295 8.9
2019-Dec-04 19:51 295 8.9
2019-Dec-04 19:46 295 8.9
2019-Dec-04 19:41 295 0 gusting 3 8.9
2019-Dec-04 19:36 295 0 gusting 5 8.9
2019-Dec-04 19:31 242 1 gusting 5 8.9
2019-Dec-04 19:26 300 0 gusting 3 8.3
2019-Dec-04 19:21 318 0 gusting 3 8.3
2019-Dec-04 19:16 355 0 gusting 3 8.3
2019-Dec-04 19:11 273 0 gusting 3 8.3
2019-Dec-04 19:06 273 8.3
2019-Dec-04 19:01 273 0 gusting 2 8.3
2019-Dec-04 18:56 273 8.3
2019-Dec-04 18:51 273 0 gusting 3 7.8
2019-Dec-04 18:46 273 0 gusting 3 7.8
2019-Dec-04 18:41 015 7.8
2019-Dec-04 18:36 015 1 gusting 5 7.8
2019-Dec-04 18:31 256 2 gusting 6 7.8
2019-Dec-04 18:26 229 3 gusting 6 7.8
2019-Dec-04 18:21 287 1 gusting 4 7.8
2019-Dec-04 18:16 287 2 gusting 6 7.8
2019-Dec-04 18:11 288 1 gusting 4 7.8
2019-Dec-04 18:06 288 1 gusting 6 7.8
2019-Dec-04 18:01 288 0 gusting 6 7.8
2019-Dec-04 17:56 288 2 gusting 6 7.8
2019-Dec-04 17:51 333 7.2
2019-Dec-04 17:46 333 2 gusting 5 7.2
2019-Dec-04 17:41 340 7.2
2019-Dec-04 17:36 339 0 gusting 2 6.7
2019-Dec-04 17:31 339 0 gusting 2 6.7
2019-Dec-04 17:26 339 0 gusting 2 6.7
2019-Dec-04 17:21 340 0 gusting 2 6.7
2019-Dec-04 17:16 339 6.7
2019-Dec-04 17:11 339 6.1
2019-Dec-04 17:06 339 6.1
2019-Dec-04 17:01 339 6.1
2019-Dec-04 16:56 339 0 gusting 3 6.1
2019-Dec-04 16:51 340 5.6
2019-Dec-04 16:46 340 5.6
2019-Dec-04 16:41 340 0 gusting 3 5.6
2019-Dec-04 16:36 340 0 gusting 3 5.6
2019-Dec-04 16:31 340 5.0
2019-Dec-04 16:26 340 5.0
2019-Dec-04 16:21 340 5.0
2019-Dec-04 16:16 340 5.0
2019-Dec-04 16:11 340 5.0
2019-Dec-04 16:06 340 0 gusting 3 5.0
2019-Dec-04 16:01 340 4.4
2019-Dec-04 15:56 340 4.4
2019-Dec-04 15:51 340 0 gusting 1 4.4
2019-Dec-04 15:46 340 4.4
2019-Dec-04 15:41 340 3.9
2019-Dec-04 15:36 340 3.9
2019-Dec-04 15:31 340 0 gusting 2 3.9
2019-Dec-04 15:26 340 3.9
2019-Dec-04 15:21 340 0 gusting 4 3.3
2019-Dec-04 15:16 340 3.3
2019-Dec-04 15:11 340 3.3
2019-Dec-04 15:06 340 2.8
2019-Dec-04 15:01 340 2.8
2019-Dec-04 14:56 340 0 gusting 1 2.8
2019-Dec-04 14:51 340 2.8
2019-Dec-04 14:46 340 2.2
2019-Dec-04 14:41 340 0 gusting 2 2.2
2019-Dec-04 14:36 340 2.2
2019-Dec-04 14:31 340 2.2
2019-Dec-04 14:26 340 2.2
2019-Dec-04 14:21 340 2.2
2019-Dec-04 14:16 340 0 gusting 2 2.2
2019-Dec-04 14:11 340 1.7
2019-Dec-04 14:06 340 1.7
2019-Dec-04 14:01 340 1.7
2019-Dec-04 13:56 340 1.7
2019-Dec-04 13:51 340 0 gusting 1 1.7
2019-Dec-04 13:46 340 1.7
2019-Dec-04 13:41 340 1.7
2019-Dec-04 13:36 340 1.7
2019-Dec-04 13:31 340 1.7
2019-Dec-04 13:26 340 1.7
2019-Dec-04 13:21 340 1.7
2019-Dec-04 13:16 340 1.7
2019-Dec-04 13:11 340 1.7
2019-Dec-04 13:06 340 1.7
2019-Dec-04 13:01 340 0 gusting 2 1.7
2019-Dec-04 12:56 340 0 gusting 2 1.7
2019-Dec-04 12:51 340 0 gusting 1 1.7
2019-Dec-04 12:46 340 1.7
2019-Dec-04 12:41 340 1.1
2019-Dec-04 12:36 340 1.1
2019-Dec-04 12:31 340 1.1
2019-Dec-04 12:26 340 1.1
2019-Dec-04 12:21 340 1.1
2019-Dec-04 12:16 340 1.1
2019-Dec-04 12:11 340 1.1
2019-Dec-04 12:06 340 0 gusting 2 1.1
2019-Dec-04 12:01 340 1.1
2019-Dec-04 11:56 340 1.1
2019-Dec-04 11:51 340 1.1
2019-Dec-04 11:46 340 1.1
2019-Dec-04 11:41 340 1.1
2019-Dec-04 11:36 340 1.1
2019-Dec-04 11:31 340 1.1
2019-Dec-04 11:26 340 1.1
2019-Dec-04 11:21 340 1.1
2019-Dec-04 11:16 340 1.7
2019-Dec-04 11:11 340 1.7
2019-Dec-04 11:06 340 1.7
2019-Dec-04 11:01 340 1.7
2019-Dec-04 10:56 340 1.7
2019-Dec-04 10:51 340 1.7
2019-Dec-04 10:46 340 1.7
2019-Dec-04 10:41 340 2.2
2019-Dec-04 10:36 340 2.2
2019-Dec-04 10:31 340 2.2
2019-Dec-04 10:26 340 2.2
2019-Dec-04 10:21 340 2.2
2019-Dec-04 10:16 340 2.2
2019-Dec-04 10:11 340 2.2
2019-Dec-04 10:06 340 2.2
2019-Dec-04 10:01 340 1.7
2019-Dec-04 09:56 340 1.7
2019-Dec-04 09:51 340 1.7
2019-Dec-04 09:46 340 1.7
2019-Dec-04 09:41 340 2.2
2019-Dec-04 09:36 340 1.7
2019-Dec-04 09:31 340 1.7
2019-Dec-04 09:26 340 1.7
2019-Dec-04 09:21 340 1.7
2019-Dec-04 09:16 340 1.7
2019-Dec-04 09:11 340 0 gusting 1 1.7
2019-Dec-04 09:06 340 1.7
2019-Dec-04 09:01 340 1.7
2019-Dec-04 08:56 340 1.7
2019-Dec-04 08:51 340 1.7
2019-Dec-04 08:46 340 1.7
2019-Dec-04 08:41 340 1.7
2019-Dec-04 08:36 340 1.7
2019-Dec-04 08:31 340 2.2
2019-Dec-04 08:26 340 2.2
2019-Dec-04 08:21 340 2.2
2019-Dec-04 08:16 340 0 gusting 2 2.2
2019-Dec-04 08:11 340 2.2
2019-Dec-04 08:06 340 2.2
2019-Dec-04 08:01 340 2.2
2019-Dec-04 07:56 340 0 gusting 3 2.2
2019-Dec-04 07:51 340 2.2
2019-Dec-04 07:46 340 0 gusting 4 2.2
2019-Dec-04 07:41 341 1 gusting 4 2.2
2019-Dec-04 07:36 341 1 gusting 4 2.2
2019-Dec-04 07:31 341 1 gusting 2 2.2
2019-Dec-04 07:26 341 2.8
2019-Dec-04 07:21 341 0 gusting 4 2.8
2019-Dec-04 07:16 341 2 gusting 5 2.8
2019-Dec-04 07:11 341 0 gusting 6 2.8
2019-Dec-04 07:06 341 1 gusting 6 2.8
2019-Dec-04 07:01 340 2 gusting 9 2.8
2019-Dec-04 06:56 338 2 gusting 6 2.8
2019-Dec-04 06:51 338 2 gusting 6 2.8
2019-Dec-04 06:46 338 3 gusting 8 2.8
2019-Dec-04 06:41 338 4 gusting 8 2.8
2019-Dec-04 06:36 337 1 gusting 5 2.2
2019-Dec-04 06:31 337 1 gusting 4 2.2
2019-Dec-04 06:26 337 0 gusting 3 2.2
2019-Dec-04 06:21 337 0 gusting 3 2.2
2019-Dec-04 06:16 337 0 gusting 0 2.2
2019-Dec-04 06:11 337 2.2
2019-Dec-04 06:06 337 2.2
2019-Dec-04 06:01 337 2.2
2019-Dec-04 05:56 337 2.2
2019-Dec-04 05:51 337 2.2
2019-Dec-04 05:46 337 2.2
2019-Dec-04 05:41 337 2.2
2019-Dec-04 05:36 337 2.2
2019-Dec-04 05:31 337 2.2
2019-Dec-04 05:26 337 2.2
2019-Dec-04 05:21 337 2.2
2019-Dec-04 05:16 337 2.2
2019-Dec-04 05:11 337 2.2
2019-Dec-04 05:06 337 2.2
2019-Dec-04 05:01 337 2.2
2019-Dec-04 04:56 337 2.2
2019-Dec-04 04:51 337 2.2
2019-Dec-04 04:46 337 2.8
2019-Dec-04 04:41 337 2.8
2019-Dec-04 04:36 337 2.8
2019-Dec-04 04:31 337 2.8
2019-Dec-04 04:26 337 2.8
2019-Dec-04 04:21 337 2.8
2019-Dec-04 04:16 337 0 gusting 3 2.8
2019-Dec-04 04:11 337 1 gusting 4 3.3
2019-Dec-04 04:06 337 1 gusting 4 3.3
2019-Dec-04 04:01 337 0 gusting 5 3.3
2019-Dec-04 03:56 337 2 gusting 5 3.3
2019-Dec-04 03:51 337 3.3
2019-Dec-04 03:46 337 0 gusting 6 3.3
2019-Dec-04 03:41 337 1 gusting 6 3.3
2019-Dec-04 03:36 337 0 gusting 6 3.3
2019-Dec-04 03:31 337 2 gusting 6 3.3
2019-Dec-04 03:26 336 1 gusting 6 3.3
2019-Dec-04 03:21 336 0 gusting 5 3.3
2019-Dec-04 03:16 336 0 gusting 2 3.3
2019-Dec-04 03:11 336 3.3
2019-Dec-04 03:06 336 0 gusting 4 3.3
2019-Dec-04 03:01 336 3.3
2019-Dec-04 02:56 336 1 gusting 6 3.3
2019-Dec-04 02:51 336 1 gusting 7 3.3
2019-Dec-04 02:46 336 0 gusting 7 2.8
2019-Dec-04 02:41 335 2.8
2019-Dec-04 02:36 335 0 gusting 3 3.3
2019-Dec-04 02:31 335 3.3
2019-Dec-04 02:26 335 3.3
2019-Dec-04 02:21 335 0 gusting 3 3.3
2019-Dec-04 02:16 335 3.3
2019-Dec-04 02:11 335 0 gusting 3 3.3
2019-Dec-04 02:06 335 2 gusting 4 3.3
2019-Dec-04 02:01 335 0 gusting 4 3.3
2019-Dec-04 01:56 335 3.3
2019-Dec-04 01:51 335 1 gusting 5 3.3
2019-Dec-04 01:46 335 1 gusting 3 3.3
2019-Dec-04 01:41 335 0 gusting 3 3.3
2019-Dec-04 01:36 335 0 gusting 5 3.3
2019-Dec-04 01:31 335 1 gusting 4 3.3
2019-Dec-04 01:26 335 2 gusting 7 3.3
2019-Dec-04 01:21 335 4 gusting 7 3.3
2019-Dec-04 01:16 335 0 gusting 3 3.3
2019-Dec-04 01:11 334 0 gusting 7 3.3
2019-Dec-04 01:06 335 3 gusting 10 3.3
2019-Dec-04 01:01 330 5 gusting 10 3.3
2019-Dec-04 00:56 333 3 gusting 7 3.3
2019-Dec-04 00:51 334 2 gusting 5 3.3
2019-Dec-04 00:46 334 2 gusting 6 3.3
2019-Dec-04 00:41 334 3 gusting 6 3.3
2019-Dec-04 00:36 334 3 gusting 6 3.3
2019-Dec-04 00:31 333 2 gusting 6 3.3
2019-Dec-04 00:26 332 2 gusting 6 3.3
2019-Dec-04 00:21 332 3 gusting 5 3.3
2019-Dec-04 00:16 332 1 gusting 6 3.9
2019-Dec-04 00:11 332 1 gusting 6 3.9
2019-Dec-04 00:06 332 2 gusting 6 3.9
2019-Dec-04 00:01 332 3 gusting 6 3.9
2019-Dec-03 23:56 332 3 gusting 6 3.3
2019-Dec-03 23:51 331 2 gusting 6 3.9
2019-Dec-03 23:46 331 0 gusting 2 3.9
2019-Dec-03 23:41 331 3.9
2019-Dec-03 23:36 331 3.9
2019-Dec-03 23:31 331 3.9
2019-Dec-03 23:26 331 0 gusting 5 3.9
2019-Dec-03 23:21 331 3 gusting 5 3.9
2019-Dec-03 23:16 331 1 gusting 3 3.9
2019-Dec-03 23:11 331 1 gusting 4 3.9
2019-Dec-03 23:06 331 2 gusting 4 4.4
2019-Dec-03 23:01 331 0 gusting 2 4.4
2019-Dec-03 22:56 331 4.4
2019-Dec-03 22:51 331 4.4
2019-Dec-03 22:46 331 0 gusting 5 4.4
2019-Dec-03 22:41 331 1 gusting 6 4.4
2019-Dec-03 22:36 331 3 gusting 6 5.0
2019-Dec-03 22:31 334 1 gusting 6 5.0
2019-Dec-03 22:26 336 2 gusting 6 5.0
2019-Dec-03 22:21 311 0 gusting 5 5.0
2019-Dec-03 22:16 308 1 gusting 5 5.0
2019-Dec-03 22:11 331 0 gusting 5 5.0
2019-Dec-03 22:06 331 2 gusting 5 5.0
2019-Dec-03 22:01 331 2 gusting 6 5.0
2019-Dec-03 21:56 340 4 gusting 6 5.6
2019-Dec-03 21:51 300 3 gusting 6 5.6
2019-Dec-03 21:46 337 2 gusting 6 5.6
2019-Dec-03 21:41 345 3 gusting 6 5.6
2019-Dec-03 21:36 331 1 gusting 6 5.6
2019-Dec-03 21:31 342 3 gusting 6 5.6
2019-Dec-03 21:26 005 3 gusting 6 5.6
2019-Dec-03 21:21 355 3 gusting 6 6.1
2019-Dec-03 21:16 360 1 gusting 7 6.1
2019-Dec-03 21:11 005 1 gusting 11 6.1
2019-Dec-03 21:06 313 6 gusting 12 6.1
2019-Dec-03 21:01 355 5 gusting 12 6.1
2019-Dec-03 20:56 334 3 gusting 11 6.1
2019-Dec-03 20:51 336 7 gusting 11 6.7
2019-Dec-03 20:46 298 5 gusting 8 6.7
2019-Dec-03 20:36 355 3 gusting 11 6.7
2019-Dec-03 20:31 327 5 gusting 11 6.7
2019-Dec-03 20:26 313 4 gusting 9 6.7
2019-Dec-03 20:21 335 5 gusting 9 6.7
2019-Dec-03 20:16 321 2 gusting 8 6.7
2019-Dec-03 20:11 343 5 gusting 8 6.7
2019-Dec-03 20:06 324 1 gusting 9 6.7
2019-Dec-03 20:01 305 4 gusting 9 6.7
2019-Dec-03 19:56 290 2 gusting 7 6.7
2019-Dec-03 19:51 316 2 gusting 11 6.7
2019-Dec-03 19:46 331 6 gusting 13 6.7
2019-Dec-03 19:41 309 6 gusting 13 6.7
2019-Dec-03 19:36 290 3 gusting 6 6.7
2019-Dec-03 19:31 310 2 gusting 12 6.7
2019-Dec-03 19:26 355 4 gusting 12 6.7
2019-Dec-03 19:21 319 3 gusting 10 6.7
2019-Dec-03 19:16 319 4 gusting 11 6.7
2019-Dec-03 19:11 355 5 gusting 13 7.2
2019-Dec-03 19:06 341 3 gusting 13 7.2
2019-Dec-03 19:01 314 5 gusting 11 7.2
2019-Dec-03 18:56 304 6 gusting 11 7.2
2019-Dec-03 18:51 332 4 gusting 12 7.2
2019-Dec-03 18:46 329 6 gusting 12 7.2
2019-Dec-03 18:41 340 5 gusting 11 7.2
2019-Dec-03 18:36 289 5 gusting 11 7.2
2019-Dec-03 18:31 286 4 gusting 8 7.8
2019-Dec-03 18:26 345 1 gusting 6 7.8
2019-Dec-03 18:21 334 3 gusting 7 7.8
2019-Dec-03 18:16 031 1 gusting 7 7.2
2019-Dec-03 18:11 355 3 gusting 8 7.2
2019-Dec-03 18:06 319 3 gusting 13 7.2
2019-Dec-03 18:01 346 6 gusting 14 7.2
2019-Dec-03 17:56 336 5 gusting 14 7.2
2019-Dec-03 17:51 348 6 gusting 14 7.2
2019-Dec-03 17:46 290 6 gusting 13 7.2
2019-Dec-03 17:41 319 6 gusting 13 7.2
2019-Dec-03 17:36 350 5 gusting 11 7.2
2019-Dec-03 17:31 307 4 gusting 9 7.2
2019-Dec-03 17:26 300 3 gusting 7 7.2
2019-Dec-03 17:21 326 4 gusting 11 6.7
2019-Dec-03 17:16 325 5 gusting 13 6.7
2019-Dec-03 17:11 321 6 gusting 13 6.7
2019-Dec-03 17:06 331 3 gusting 11 6.7
2019-Dec-03 17:01 348 4 gusting 10 6.7